sensor_id;sensor_type;location;lat;lon;timestamp;pressure;altitude;pressure_sealevel;temperature;humidity
62025;BME280;47978;49.118;12.146;2023-03-01T00:02:23;98289.13;;;0.16;72.09
62025;BME280;47978;49.118;12.146;2023-03-01T00:06:25;98291.47;;;0.13;72.15
62025;BME280;47978;49.118;12.146;2023-03-01T00:10:26;98295.69;;;0.02;72.88
62025;BME280;47978;49.118;12.146;2023-03-01T00:14:27;98288.81;;;-0.01;72.58
62025;BME280;47978;49.118;12.146;2023-03-01T00:18:30;98287.34;;;-0.03;73.05
62025;BME280;47978;49.118;12.146;2023-03-01T00:22:32;98283.81;;;-0.04;72.64
62025;BME280;47978;49.118;12.146;2023-03-01T00:26:33;98277.53;;;-0.04;72.43
62025;BME280;47978;49.118;12.146;2023-03-01T00:30:35;98275.91;;;-0.05;72.53
62025;BME280;47978;49.118;12.146;2023-03-01T00:34:38;98275.72;;;-0.10;72.46
62025;BME280;47978;49.118;12.146;2023-03-01T00:38:40;98266.72;;;-0.11;72.59
62025;BME280;47978;49.118;12.146;2023-03-01T00:42:41;98271.97;;;-0.16;72.53
62025;BME280;47978;49.118;12.146;2023-03-01T00:46:43;98265.13;;;-0.25;72.83
62025;BME280;47978;49.118;12.146;2023-03-01T00:50:45;98270.38;;;-0.30;73.12
62025;BME280;47978;49.118;12.146;2023-03-01T00:54:47;98271.16;;;-0.23;72.68
62025;BME280;47978;49.118;12.146;2023-03-01T00:58:48;98262.22;;;-0.30;72.53
62025;BME280;47978;49.118;12.146;2023-03-01T01:02:50;98263.50;;;-0.33;72.87
62025;BME280;47978;49.118;12.146;2023-03-01T01:06:52;98255.72;;;-0.29;72.50
62025;BME280;47978;49.118;12.146;2023-03-01T01:10:54;98258.25;;;-0.34;72.64
62025;BME280;47978;49.118;12.146;2023-03-01T01:14:55;98251.00;;;-0.40;72.60
62025;BME280;47978;49.118;12.146;2023-03-01T01:18:57;98243.66;;;-0.33;72.63
62025;BME280;47978;49.118;12.146;2023-03-01T01:22:59;98232.41;;;-0.43;72.65
62025;BME280;47978;49.118;12.146;2023-03-01T01:27:01;98239.25;;;-0.34;72.17
62025;BME280;47978;49.118;12.146;2023-03-01T01:31:02;98235.13;;;-0.43;72.16
62025;BME280;47978;49.118;12.146;2023-03-01T01:35:04;98227.81;;;-0.43;71.97
62025;BME280;47978;49.118;12.146;2023-03-01T01:39:07;98228.03;;;-0.44;72.00
62025;BME280;47978;49.118;12.146;2023-03-01T01:43:09;98218.81;;;-0.37;71.82
62025;BME280;47978;49.118;12.146;2023-03-01T01:47:14;98211.16;;;-0.53;72.05
62025;BME280;47978;49.118;12.146;2023-03-01T01:51:18;98208.47;;;-0.60;72.01
62025;BME280;47978;49.118;12.146;2023-03-01T01:55:22;98206.56;;;-0.53;71.82
62025;BME280;47978;49.118;12.146;2023-03-01T01:59:24;98207.81;;;-0.55;71.49
62025;BME280;47978;49.118;12.146;2023-03-01T02:03:26;98200.91;;;-0.51;71.54
62025;BME280;47978;49.118;12.146;2023-03-01T02:07:29;98193.38;;;-0.49;71.39
62025;BME280;47978;49.118;12.146;2023-03-01T02:11:32;98184.63;;;-0.51;71.30
62025;BME280;47978;49.118;12.146;2023-03-01T02:15:34;98188.75;;;-0.49;71.30
62025;BME280;47978;49.118;12.146;2023-03-01T02:19:40;98183.75;;;-0.52;71.59
62025;BME280;47978;49.118;12.146;2023-03-01T02:23:45;98175.47;;;-0.57;71.36
62025;BME280;47978;49.118;12.146;2023-03-01T02:27:49;98166.88;;;-0.60;71.28
62025;BME280;47978;49.118;12.146;2023-03-01T02:31:56;98160.44;;;-0.59;71.64
62025;BME280;47978;49.118;12.146;2023-03-01T02:35:59;98161.88;;;-0.57;71.27
62025;BME280;47978;49.118;12.146;2023-03-01T02:40:02;98160.50;;;-0.73;71.73
62025;BME280;47978;49.118;12.146;2023-03-01T02:44:05;98170.28;;;-0.72;71.80
62025;BME280;47978;49.118;12.146;2023-03-01T02:48:07;98158.22;;;-0.76;71.38
62025;BME280;47978;49.118;12.146;2023-03-01T02:52:23;98155.25;;;-0.68;71.61
62025;BME280;47978;49.118;12.146;2023-03-01T02:56:29;98156.47;;;-0.63;71.36
62025;BME280;47978;49.118;12.146;2023-03-01T03:00:32;98153.44;;;-0.80;71.40
62025;BME280;47978;49.118;12.146;2023-03-01T03:04:37;98151.13;;;-0.77;71.33
62025;BME280;47978;49.118;12.146;2023-03-01T03:08:38;98147.59;;;-0.84;71.48
62025;BME280;47978;49.118;12.146;2023-03-01T03:12:40;98143.81;;;-0.76;71.37
62025;BME280;47978;49.118;12.146;2023-03-01T03:16:41;98136.09;;;-0.79;71.36
62025;BME280;47978;49.118;12.146;2023-03-01T03:20:44;98124.19;;;-0.78;71.42
62025;BME280;47978;49.118;12.146;2023-03-01T03:24:46;98134.22;;;-0.79;70.97
62025;BME280;47978;49.118;12.146;2023-03-01T03:28:47;98129.00;;;-0.80;71.39
62025;BME280;47978;49.118;12.146;2023-03-01T03:32:49;98138.41;;;-0.83;71.38
62025;BME280;47978;49.118;12.146;2023-03-01T03:36:54;98137.38;;;-0.82;71.13
62025;BME280;47978;49.118;12.146;2023-03-01T03:40:59;98135.03;;;-0.78;70.76
62025;BME280;47978;49.118;12.146;2023-03-01T03:45:01;98127.38;;;-0.88;71.23
62025;BME280;47978;49.118;12.146;2023-03-01T03:49:02;98125.88;;;-0.84;71.28
62025;BME280;47978;49.118;12.146;2023-03-01T03:53:07;98121.75;;;-0.93;71.61
62025;BME280;47978;49.118;12.146;2023-03-01T03:57:08;98129.66;;;-0.85;71.34
62025;BME280;47978;49.118;12.146;2023-03-01T04:01:10;98120.31;;;-0.96;71.50
62025;BME280;47978;49.118;12.146;2023-03-01T04:05:12;98123.47;;;-0.99;71.70
62025;BME280;47978;49.118;12.146;2023-03-01T04:09:15;98111.59;;;-1.04;71.87
62025;BME280;47978;49.118;12.146;2023-03-01T04:13:18;98110.31;;;-1.02;71.94
62025;BME280;47978;49.118;12.146;2023-03-01T04:17:19;98107.81;;;-1.03;72.18
62025;BME280;47978;49.118;12.146;2023-03-01T04:21:21;98119.97;;;-1.13;72.04
62025;BME280;47978;49.118;12.146;2023-03-01T04:25:24;98118.09;;;-1.12;71.96
62025;BME280;47978;49.118;12.146;2023-03-01T04:29:25;98121.38;;;-1.03;72.18
62025;BME280;47978;49.118;12.146;2023-03-01T04:33:27;98120.81;;;-1.12;72.35
62025;BME280;47978;49.118;12.146;2023-03-01T04:37:28;98113.28;;;-1.10;72.07
62025;BME280;47978;49.118;12.146;2023-03-01T04:41:31;98116.81;;;-1.09;72.17
62025;BME280;47978;49.118;12.146;2023-03-01T04:45:32;98116.00;;;-1.10;72.15
62025;BME280;47978;49.118;12.146;2023-03-01T04:49:34;98116.03;;;-1.17;72.38
62025;BME280;47978;49.118;12.146;2023-03-01T04:53:36;98120.41;;;-1.16;72.41
62025;BME280;47978;49.118;12.146;2023-03-01T04:57:38;98122.94;;;-1.21;72.38
62025;BME280;47978;49.118;12.146;2023-03-01T05:01:40;98126.28;;;-1.25;72.89
62025;BME280;47978;49.118;12.146;2023-03-01T05:05:41;98123.78;;;-1.27;73.50
62025;BME280;47978;49.118;12.146;2023-03-01T05:09:43;98119.22;;;-1.33;72.76
62025;BME280;47978;49.118;12.146;2023-03-01T05:13:46;98116.75;;;-1.41;73.11
62025;BME280;47978;49.118;12.146;2023-03-01T05:17:47;98112.56;;;-1.37;73.09
62025;BME280;47978;49.118;12.146;2023-03-01T05:21:49;98127.13;;;-1.31;72.99
62025;BME280;47978;49.118;12.146;2023-03-01T05:25:50;98110.47;;;-1.35;73.08
62025;BME280;47978;49.118;12.146;2023-03-01T05:29:53;98108.81;;;-1.43;73.20
62025;BME280;47978;49.118;12.146;2023-03-01T05:33:54;98097.56;;;-1.46;73.16
62025;BME280;47978;49.118;12.146;2023-03-01T05:37:56;98111.75;;;-1.44;73.21
62025;BME280;47978;49.118;12.146;2023-03-01T05:41:58;98111.97;;;-1.39;73.10
62025;BME280;47978;49.118;12.146;2023-03-01T05:46:01;98105.47;;;-1.38;73.03
62025;BME280;47978;49.118;12.146;2023-03-01T05:50:02;98096.94;;;-1.42;73.17
62025;BME280;47978;49.118;12.146;2023-03-01T05:54:04;98092.56;;;-1.49;72.93
62025;BME280;47978;49.118;12.146;2023-03-01T05:58:07;98101.94;;;-1.39;73.11
62025;BME280;47978;49.118;12.146;2023-03-01T06:02:10;98093.59;;;-1.44;72.90
62025;BME280;47978;49.118;12.146;2023-03-01T06:06:11;98092.16;;;-1.46;73.27
62025;BME280;47978;49.118;12.146;2023-03-01T06:10:12;98096.13;;;-1.42;72.93
62025;BME280;47978;49.118;12.146;2023-03-01T06:14:14;98097.56;;;-1.46;73.54
62025;BME280;47978;49.118;12.146;2023-03-01T06:18:17;98107.53;;;-1.27;73.02
62025;BME280;47978;49.118;12.146;2023-03-01T06:22:18;98107.91;;;-1.17;71.87
62025;BME280;47978;49.118;12.146;2023-03-01T06:26:19;98105.19;;;-1.17;72.09
62025;BME280;47978;49.118;12.146;2023-03-01T06:30:22;98102.63;;;-1.11;71.92
62025;BME280;47978;49.118;12.146;2023-03-01T06:34:25;98106.44;;;-1.19;71.89
62025;BME280;47978;49.118;12.146;2023-03-01T06:38:26;98102.63;;;-1.11;72.07
62025;BME280;47978;49.118;12.146;2023-03-01T06:42:28;98101.16;;;-1.07;71.82
62025;BME280;47978;49.118;12.146;2023-03-01T06:46:29;98106.84;;;-1.16;72.04
62025;BME280;47978;49.118;12.146;2023-03-01T06:50:32;98114.69;;;-1.01;71.51
62025;BME280;47978;49.118;12.146;2023-03-01T06:54:34;98105.88;;;-0.89;71.24
62025;BME280;47978;49.118;12.146;2023-03-01T06:58:35;98114.63;;;-0.87;71.11
62025;BME280;47978;49.118;12.146;2023-03-01T07:02:37;98113.81;;;-0.88;70.67
62025;BME280;47978;49.118;12.146;2023-03-01T07:06:40;98109.81;;;-0.85;70.49
62025;BME280;47978;49.118;12.146;2023-03-01T07:10:41;98108.06;;;-0.73;70.49
62025;BME280;47978;49.118;12.146;2023-03-01T07:14:43;98087.44;;;-0.49;69.61
62025;BME280;47978;49.118;12.146;2023-03-01T07:18:44;98080.41;;;-0.57;69.63
62025;BME280;47978;49.118;12.146;2023-03-01T07:22:47;98089.78;;;-0.28;68.73
62025;BME280;47978;49.118;12.146;2023-03-01T07:26:49;98092.97;;;-0.12;68.20
62025;BME280;47978;49.118;12.146;2023-03-01T07:30:50;98085.72;;;0.07;67.99
62025;BME280;47978;49.118;12.146;2023-03-01T07:34:51;98085.06;;;0.30;66.97
62025;BME280;47978;49.118;12.146;2023-03-01T07:38:54;98082.88;;;0.38;66.73
62025;BME280;47978;49.118;12.146;2023-03-01T07:42:56;98082.94;;;0.50;66.02
62025;BME280;47978;49.118;12.146;2023-03-01T07:46:57;98080.22;;;0.50;66.06
62025;BME280;47978;49.118;12.146;2023-03-01T07:50:59;98068.25;;;0.51;66.02
62025;BME280;47978;49.118;12.146;2023-03-01T07:55:02;98072.13;;;0.62;65.61
62025;BME280;47978;49.118;12.146;2023-03-01T07:59:03;98066.84;;;0.49;65.95
62025;BME280;47978;49.118;12.146;2023-03-01T08:03:05;98059.69;;;0.84;65.28
62025;BME280;47978;49.118;12.146;2023-03-01T08:07:06;98068.56;;;1.10;63.97
62025;BME280;47978;49.118;12.146;2023-03-01T08:11:09;98061.47;;;1.51;63.19
62025;BME280;47978;49.118;12.146;2023-03-01T08:15:11;98056.19;;;1.91;62.00
62025;BME280;47978;49.118;12.146;2023-03-01T08:19:13;98055.34;;;2.14;60.36
62025;BME280;47978;49.118;12.146;2023-03-01T08:23:14;98055.22;;;2.09;59.23
62025;BME280;47978;49.118;12.146;2023-03-01T08:27:17;98055.84;;;1.99;58.99
62025;BME280;47978;49.118;12.146;2023-03-01T08:31:20;98064.97;;;2.29;59.31
62025;BME280;47978;49.118;12.146;2023-03-01T08:35:21;98068.94;;;2.61;58.80
62025;BME280;47978;49.118;12.146;2023-03-01T08:39:23;98051.41;;;2.86;57.77
62025;BME280;47978;49.118;12.146;2023-03-01T08:43:26;98049.91;;;3.07;56.71
62025;BME280;47978;49.118;12.146;2023-03-01T08:47:27;98051.47;;;3.31;55.30
62025;BME280;47978;49.118;12.146;2023-03-01T08:51:29;98033.00;;;3.55;55.74
62025;BME280;47978;49.118;12.146;2023-03-01T08:55:30;98039.50;;;3.83;54.66
62025;BME280;47978;49.118;12.146;2023-03-01T08:59:33;98035.44;;;4.02;53.68
62025;BME280;47978;49.118;12.146;2023-03-01T09:03:35;98039.28;;;4.23;53.50
62025;BME280;47978;49.118;12.146;2023-03-01T09:07:36;98032.88;;;4.35;53.13
62025;BME280;47978;49.118;12.146;2023-03-01T09:11:38;98036.97;;;4.54;52.71
62025;BME280;47978;49.118;12.146;2023-03-01T09:15:40;98026.78;;;4.49;52.47
62025;BME280;47978;49.118;12.146;2023-03-01T09:19:42;98028.13;;;4.08;53.21
62025;BME280;47978;49.118;12.146;2023-03-01T09:23:44;98019.53;;;3.82;54.12
62025;BME280;47978;49.118;12.146;2023-03-01T09:27:46;98013.75;;;4.18;53.62
62025;BME280;47978;49.118;12.146;2023-03-01T09:31:49;98011.09;;;4.23;53.07
62025;BME280;47978;49.118;12.146;2023-03-01T09:35:55;98012.41;;;4.20;52.77
62025;BME280;47978;49.118;12.146;2023-03-01T09:39:56;98008.63;;;4.43;52.16
62025;BME280;47978;49.118;12.146;2023-03-01T09:43:59;97996.84;;;4.43;52.01
62025;BME280;47978;49.118;12.146;2023-03-01T09:48:05;97998.88;;;4.74;51.42
62025;BME280;47978;49.118;12.146;2023-03-01T09:52:09;98000.97;;;4.89;50.47
62025;BME280;47978;49.118;12.146;2023-03-01T09:56:16;98003.25;;;4.97;49.93
62025;BME280;47978;49.118;12.146;2023-03-01T10:00:26;97997.59;;;4.82;49.74
62025;BME280;47978;49.118;12.146;2023-03-01T10:04:35;97994.56;;;5.06;49.35
62025;BME280;47978;49.118;12.146;2023-03-01T10:08:41;97988.09;;;5.17;50.05
62025;BME280;47978;49.118;12.146;2023-03-01T10:12:44;97987.06;;;5.23;49.69
62025;BME280;47978;49.118;12.146;2023-03-01T10:16:46;97979.81;;;5.39;49.02
62025;BME280;47978;49.118;12.146;2023-03-01T10:20:52;97978.41;;;5.04;49.91
62025;BME280;47978;49.118;12.146;2023-03-01T10:24:54;97965.19;;;5.28;49.19
62025;BME280;47978;49.118;12.146;2023-03-01T10:28:58;97953.41;;;5.28;49.26
62025;BME280;47978;49.118;12.146;2023-03-01T10:33:02;97950.19;;;5.36;49.21
62025;BME280;47978;49.118;12.146;2023-03-01T10:37:10;97948.88;;;5.44;49.55
62025;BME280;47978;49.118;12.146;2023-03-01T10:41:11;97934.69;;;5.57;49.10
62025;BME280;47978;49.118;12.146;2023-03-01T10:45:19;97925.59;;;5.51;48.72
62025;BME280;47978;49.118;12.146;2023-03-01T10:49:27;97925.41;;;5.58;49.31
62025;BME280;47978;49.118;12.146;2023-03-01T10:53:31;97916.22;;;5.42;49.62
62025;BME280;47978;49.118;12.146;2023-03-01T10:57:35;97911.06;;;5.51;49.48
62025;BME280;47978;49.118;12.146;2023-03-01T11:01:36;97903.38;;;5.48;50.24
62025;BME280;47978;49.118;12.146;2023-03-01T11:05:50;97897.72;;;5.64;50.12
62025;BME280;47978;49.118;12.146;2023-03-01T11:09:53;97896.56;;;5.55;51.01
62025;BME280;47978;49.118;12.146;2023-03-01T11:13:55;97889.75;;;5.63;51.00
62025;BME280;47978;49.118;12.146;2023-03-01T11:17:57;97881.59;;;5.73;51.33
62025;BME280;47978;49.118;12.146;2023-03-01T11:22:13;97876.19;;;5.83;50.68
62025;BME280;47978;49.118;12.146;2023-03-01T11:26:16;97871.34;;;6.01;50.47
62025;BME280;47978;49.118;12.146;2023-03-01T11:30:20;97864.22;;;6.05;51.09
62025;BME280;47978;49.118;12.146;2023-03-01T11:34:24;97865.84;;;5.96;51.59
62025;BME280;47978;49.118;12.146;2023-03-01T11:38:29;97860.56;;;5.89;51.94
62025;BME280;47978;49.118;12.146;2023-03-01T11:42:37;97852.00;;;5.80;52.40
62025;BME280;47978;49.118;12.146;2023-03-01T11:46:49;97843.25;;;5.89;52.39
62025;BME280;47978;49.118;12.146;2023-03-01T11:50:53;97837.56;;;5.95;52.55
62025;BME280;47978;49.118;12.146;2023-03-01T11:54:59;97839.22;;;5.96;52.54
62025;BME280;47978;49.118;12.146;2023-03-01T12:03:32;97825.78;;;6.05;53.03
62025;BME280;47978;49.118;12.146;2023-03-01T12:07:37;97820.03;;;6.01;52.88
62025;BME280;47978;49.118;12.146;2023-03-01T12:11:43;97798.97;;;6.27;52.56
62025;BME280;47978;49.118;12.146;2023-03-01T12:15:49;97789.13;;;6.47;52.41
62025;BME280;47978;49.118;12.146;2023-03-01T12:20:00;97788.84;;;6.59;51.63
62025;BME280;47978;49.118;12.146;2023-03-01T12:24:14;97795.16;;;6.44;51.83
62025;BME280;47978;49.118;12.146;2023-03-01T12:28:24;97787.47;;;6.56;51.21
62025;BME280;47978;49.118;12.146;2023-03-01T12:32:34;97781.44;;;6.64;51.70
62025;BME280;47978;49.118;12.146;2023-03-01T12:36:51;97773.47;;;6.52;52.08
62025;BME280;47978;49.118;12.146;2023-03-01T12:41:06;97767.16;;;6.67;52.17
62025;BME280;47978;49.118;12.146;2023-03-01T12:45:17;97767.16;;;6.67;52.15
62025;BME280;47978;49.118;12.146;2023-03-01T12:49:24;97758.09;;;6.77;52.15
62025;BME280;47978;49.118;12.146;2023-03-01T12:53:30;97746.00;;;6.98;51.95
62025;BME280;47978;49.118;12.146;2023-03-01T12:57:33;97746.00;;;6.93;51.91
62025;BME280;47978;49.118;12.146;2023-03-01T13:01:40;97754.22;;;7.09;51.56
62025;BME280;47978;49.118;12.146;2023-03-01T13:05:46;97735.00;;;7.04;51.74
62025;BME280;47978;49.118;12.146;2023-03-01T13:09:55;97730.00;;;7.06;51.79
62025;BME280;47978;49.118;12.146;2023-03-01T13:18:28;97729.19;;;7.20;51.71
62025;BME280;47978;49.118;12.146;2023-03-01T13:22:30;97726.94;;;7.28;51.79
62025;BME280;47978;49.118;12.146;2023-03-01T13:26:53;97735.13;;;7.48;51.84
62025;BME280;47978;49.118;12.146;2023-03-01T13:30:55;97731.03;;;7.46;51.09
62025;BME280;47978;49.118;12.146;2023-03-01T13:34:58;97743.69;;;7.47;51.36
62025;BME280;47978;49.118;12.146;2023-03-01T13:39:00;97731.03;;;7.46;51.32
62025;BME280;47978;49.118;12.146;2023-03-01T13:47:19;97730.97;;;7.61;51.40
62025;BME280;47978;49.118;12.146;2023-03-01T13:51:23;97740.56;;;7.74;51.42
62025;BME280;47978;49.118;12.146;2023-03-01T13:55:27;97739.69;;;7.83;50.98
62025;BME280;47978;49.118;12.146;2023-03-01T13:59:31;97738.13;;;7.67;51.71
62025;BME280;47978;49.118;12.146;2023-03-01T14:03:40;97738.66;;;7.69;51.83
62025;BME280;47978;49.118;12.146;2023-03-01T14:07:42;97733.16;;;7.74;51.73
62025;BME280;47978;49.118;12.146;2023-03-01T14:12:02;97734.53;;;7.66;51.80
62025;BME280;47978;49.118;12.146;2023-03-01T14:16:11;97736.19;;;7.68;51.67
62025;BME280;47978;49.118;12.146;2023-03-01T14:20:18;97732.28;;;7.74;51.51
62025;BME280;47978;49.118;12.146;2023-03-01T14:24:20;97729.50;;;7.84;51.84
62025;BME280;47978;49.118;12.146;2023-03-01T14:28:23;97724.28;;;7.82;51.50
62025;BME280;47978;49.118;12.146;2023-03-01T14:32:26;97727.91;;;7.73;51.99
62025;BME280;47978;49.118;12.146;2023-03-01T14:36:29;97724.34;;;7.72;52.20
62025;BME280;47978;49.118;12.146;2023-03-01T14:40:32;97724.34;;;7.72;52.34
62025;BME280;47978;49.118;12.146;2023-03-01T14:44:34;97732.06;;;7.65;52.81
62025;BME280;47978;49.118;12.146;2023-03-01T14:48:35;97724.13;;;7.48;53.77
62025;BME280;47978;49.118;12.146;2023-03-01T14:52:39;97727.19;;;7.52;53.65
62025;BME280;47978;49.118;12.146;2023-03-01T14:56:44;97726.59;;;7.60;53.43
62025;BME280;47978;49.118;12.146;2023-03-01T15:00:48;97732.69;;;7.47;54.16
62025;BME280;47978;49.118;12.146;2023-03-01T15:04:51;97730.19;;;7.50;53.65
62025;BME280;47978;49.118;12.146;2023-03-01T15:08:54;97727.19;;;7.47;53.96
62025;BME280;47978;49.118;12.146;2023-03-01T15:12:56;97718.69;;;7.28;54.38
62025;BME280;47978;49.118;12.146;2023-03-01T15:16:57;97712.13;;;7.18;54.89
62025;BME280;47978;49.118;12.146;2023-03-01T15:21:05;97726.16;;;7.17;54.92
62025;BME280;47978;49.118;12.146;2023-03-01T15:25:14;97717.94;;;7.07;55.04
62025;BME280;47978;49.118;12.146;2023-03-01T15:29:18;97719.56;;;7.08;55.03
62025;BME280;47978;49.118;12.146;2023-03-01T15:33:25;97722.88;;;7.05;55.13
62025;BME280;47978;49.118;12.146;2023-03-01T15:37:36;97728.13;;;7.01;55.35
62025;BME280;47978;49.118;12.146;2023-03-01T15:41:47;97722.09;;;6.89;55.75
62025;BME280;47978;49.118;12.146;2023-03-01T15:45:55;97708.91;;;6.70;56.02
62025;BME280;47978;49.118;12.146;2023-03-01T15:49:58;97700.66;;;6.81;56.26
62025;BME280;47978;49.118;12.146;2023-03-01T15:54:01;97692.97;;;6.67;56.21
62025;BME280;47978;49.118;12.146;2023-03-01T15:58:05;97696.28;;;6.69;56.82
62025;BME280;47978;49.118;12.146;2023-03-01T16:02:08;97678.97;;;6.64;56.50
62025;BME280;47978;49.118;12.146;2023-03-01T16:06:10;97686.91;;;6.65;56.42
62025;BME280;47978;49.118;12.146;2023-03-01T16:10:11;97698.72;;;6.45;57.05
62025;BME280;47978;49.118;12.146;2023-03-01T16:14:14;97689.69;;;6.45;57.50
62025;BME280;47978;49.118;12.146;2023-03-01T16:18:15;97697.09;;;6.39;57.44
62025;BME280;47978;49.118;12.146;2023-03-01T16:22:17;97693.78;;;6.37;57.34
62025;BME280;47978;49.118;12.146;2023-03-01T16:26:18;97700.91;;;6.13;57.91
62025;BME280;47978;49.118;12.146;2023-03-01T16:30:23;97692.38;;;5.99;58.04
62025;BME280;47978;49.118;12.146;2023-03-01T16:38:38;97688.47;;;5.84;58.71
62025;BME280;47978;49.118;12.146;2023-03-01T16:42:40;97687.06;;;5.77;59.18
62025;BME280;47978;49.118;12.146;2023-03-01T16:46:43;97695.28;;;5.61;59.60
62025;BME280;47978;49.118;12.146;2023-03-01T16:50:44;97694.34;;;5.40;59.92
62025;BME280;47978;49.118;12.146;2023-03-01T16:54:46;97699.28;;;5.33;60.59
62025;BME280;47978;49.118;12.146;2023-03-01T16:58:47;97700.88;;;5.29;60.57
62025;BME280;47978;49.118;12.146;2023-03-01T17:02:50;97707.19;;;5.25;60.49
62025;BME280;47978;49.118;12.146;2023-03-01T17:06:51;97702.69;;;5.08;61.33
62025;BME280;47978;49.118;12.146;2023-03-01T17:10:53;97715.03;;;5.11;62.71
62025;BME280;47978;49.118;12.146;2023-03-01T17:14:54;97708.50;;;5.17;61.12
62025;BME280;47978;49.118;12.146;2023-03-01T17:18:57;97716.97;;;5.10;61.27
62025;BME280;47978;49.118;12.146;2023-03-01T17:22:58;97728.47;;;5.07;61.62
62025;BME280;47978;49.118;12.146;2023-03-01T17:27:00;97726.47;;;4.92;62.20
62025;BME280;47978;49.118;12.146;2023-03-01T17:31:02;97733.69;;;4.71;62.85
62025;BME280;47978;49.118;12.146;2023-03-01T17:35:05;97725.25;;;4.78;62.82
62025;BME280;47978;49.118;12.146;2023-03-01T17:39:07;97733.16;;;4.74;63.12
62025;BME280;47978;49.118;12.146;2023-03-01T17:43:08;97730.94;;;4.71;63.67
62025;BME280;47978;49.118;12.146;2023-03-01T17:47:10;97727.63;;;4.64;63.82
62025;BME280;47978;49.118;12.146;2023-03-01T17:51:12;97734.09;;;4.53;64.25
62025;BME280;47978;49.118;12.146;2023-03-01T17:55:14;97739.53;;;4.48;64.65
62025;BME280;47978;49.118;12.146;2023-03-01T17:59:15;97733.28;;;4.53;64.91
62025;BME280;47978;49.118;12.146;2023-03-01T18:03:17;97739.25;;;4.49;65.29
62025;BME280;47978;49.118;12.146;2023-03-01T18:07:19;97749.84;;;4.36;65.92
62025;BME280;47978;49.118;12.146;2023-03-01T18:11:21;97753.84;;;4.28;66.33
62025;BME280;47978;49.118;12.146;2023-03-01T18:15:23;97745.47;;;4.40;66.12
62025;BME280;47978;49.118;12.146;2023-03-01T18:19:24;97742.44;;;4.36;66.46
62025;BME280;47978;49.118;12.146;2023-03-01T18:23:27;97756.94;;;4.37;66.71
62025;BME280;47978;49.118;12.146;2023-03-01T18:27:29;97753.94;;;4.38;66.69
62025;BME280;47978;49.118;12.146;2023-03-01T18:31:30;97758.28;;;4.34;66.76
62025;BME280;47978;49.118;12.146;2023-03-01T18:35:34;97767.78;;;4.26;67.06
62025;BME280;47978;49.118;12.146;2023-03-01T18:39:37;97772.91;;;4.18;67.18
62025;BME280;47978;49.118;12.146;2023-03-01T18:43:38;97774.81;;;4.17;67.54
62025;BME280;47978;49.118;12.146;2023-03-01T18:47:40;97772.09;;;4.17;67.77
62025;BME280;47978;49.118;12.146;2023-03-01T18:51:41;97778.34;;;4.13;67.68
62025;BME280;47978;49.118;12.146;2023-03-01T18:55:44;97779.16;;;4.13;67.72
62025;BME280;47978;49.118;12.146;2023-03-01T18:59:46;97782.59;;;4.03;68.01
62025;BME280;47978;49.118;12.146;2023-03-01T19:03:47;97784.50;;;4.03;68.04
62025;BME280;47978;49.118;12.146;2023-03-01T19:07:49;97784.47;;;3.98;68.39
62025;BME280;47978;49.118;12.146;2023-03-01T19:11:52;97785.78;;;3.95;68.37
62025;BME280;47978;49.118;12.146;2023-03-01T19:16:03;97784.72;;;3.96;68.42
62025;BME280;47978;49.118;12.146;2023-03-01T19:20:05;97782.50;;;3.93;68.42
62025;BME280;47978;49.118;12.146;2023-03-01T19:24:07;97783.06;;;3.95;68.48
62025;BME280;47978;49.118;12.146;2023-03-01T19:28:09;97775.56;;;3.86;68.86
62025;BME280;47978;49.118;12.146;2023-03-01T19:32:11;97764.56;;;3.80;68.96
62025;BME280;47978;49.118;12.146;2023-03-01T19:36:12;97781.28;;;3.84;69.00
62025;BME280;47978;49.118;12.146;2023-03-01T19:40:14;97788.06;;;3.76;69.05
62025;BME280;47978;49.118;12.146;2023-03-01T19:44:16;97784.16;;;3.72;69.29
62025;BME280;47978;49.118;12.146;2023-03-01T19:48:18;97778.69;;;3.72;69.25
62025;BME280;47978;49.118;12.146;2023-03-01T19:52:19;97784.66;;;3.69;69.34
62025;BME280;47978;49.118;12.146;2023-03-01T19:56:21;97774.53;;;3.70;69.36
62025;BME280;47978;49.118;12.146;2023-03-01T20:00:24;97774.81;;;3.68;69.50
62025;BME280;47978;49.118;12.146;2023-03-01T20:04:25;97772.84;;;3.64;69.33
62025;BME280;47978;49.118;12.146;2023-03-01T20:08:28;97776.66;;;3.63;69.59
62025;BME280;47978;49.118;12.146;2023-03-01T20:12:30;97773.94;;;3.63;69.64
62025;BME280;47978;49.118;12.146;2023-03-01T20:16:32;97768.47;;;3.63;69.61
62025;BME280;47978;49.118;12.146;2023-03-01T20:20:34;97774.25;;;3.66;69.69
62025;BME280;47978;49.118;12.146;2023-03-01T20:24:36;97777.75;;;3.62;69.42
62025;BME280;47978;49.118;12.146;2023-03-01T20:28:37;97773.66;;;3.64;69.57
62025;BME280;47978;49.118;12.146;2023-03-01T20:32:40;97768.59;;;3.51;70.10
62025;BME280;47978;49.118;12.146;2023-03-01T20:36:41;97766.47;;;3.58;70.02
62025;BME280;47978;49.118;12.146;2023-03-01T20:40:43;97760.06;;;3.47;70.07
62025;BME280;47978;49.118;12.146;2023-03-01T20:44:44;97752.94;;;3.46;70.27
62025;BME280;47978;49.118;12.146;2023-03-01T20:48:47;97753.75;;;3.47;70.27
62025;BME280;47978;49.118;12.146;2023-03-01T20:52:48;97754.19;;;3.38;70.46
62025;BME280;47978;49.118;12.146;2023-03-01T20:56:50;97746.84;;;3.39;70.55
62025;BME280;47978;49.118;12.146;2023-03-01T21:00:51;97745.38;;;3.31;70.84
62025;BME280;47978;49.118;12.146;2023-03-01T21:04:54;97754.75;;;3.19;71.19
62025;BME280;47978;49.118;12.146;2023-03-01T21:08:55;97756.50;;;3.25;71.23
62025;BME280;47978;49.118;12.146;2023-03-01T21:12:57;97752.91;;;3.02;72.20
62025;BME280;47978;49.118;12.146;2023-03-01T21:16:58;97742.88;;;3.08;71.98
62025;BME280;47978;49.118;12.146;2023-03-01T21:21:02;97749.34;;;3.02;71.95
62025;BME280;47978;49.118;12.146;2023-03-01T21:25:04;97757.53;;;3.02;72.09
62025;BME280;47978;49.118;12.146;2023-03-01T21:29:06;97757.28;;;3.03;72.19
62025;BME280;47978;49.118;12.146;2023-03-01T21:33:07;97750.81;;;3.09;71.98
62025;BME280;47978;49.118;12.146;2023-03-01T21:37:10;97745.28;;;2.87;72.51
62025;BME280;47978;49.118;12.146;2023-03-01T21:41:12;97760.94;;;2.92;72.66